Time;durP1;ratioP1;P1;durP2;ratioP2;P2;SDS_P1;SDS_P2;PMS_P1;PMS_P2;Temp;Humidity;BMP_temperature;BMP_pressure;BME280_temperature;BME280_humidity;BME280_pressure;Samples;Min_cycle;Max_cycle;Signal;HPM_P1;HPM_P2
2024/01/12 00:01:23;;;;;;;;;;;1.40;99.90;;;;;;5116148;28;19904;-72
2024/01/12 00:03:49;;;;;;;;;;;1.40;99.90;;;;;;5116086;28;19914;-72
2024/01/12 00:06:15;;;;;;;;;;;1.40;99.90;;;;;;5116617;28;19904;-72
2024/01/12 00:08:40;;;;;;;;;;;1.30;99.90;;;;;;5113969;28;19911;-72
2024/01/12 00:11:09;;;;;;;;;;;1.30;99.90;;;;;;5116241;28;19904;-72
2024/01/12 00:13:34;;;;;;;;;;;1.30;99.90;;;;;;5115960;28;20442;-72
2024/01/12 00:16:06;;;;;;;;;;;1.20;99.90;;;;;;5114413;28;19980;-72
2024/01/12 00:18:32;;;;;;;;;;;1.20;99.90;;;;;;5113521;28;19904;-73
2024/01/12 00:20:58;;;;;;;;;;;1.10;99.90;;;;;;5106183;28;19934;-72
2024/01/12 00:23:23;;;;;;;;;;;1.00;99.90;;;;;;5116148;28;20275;-72
2024/01/12 00:25:49;;;;;;;;;;;1.00;99.90;;;;;;5116364;28;19903;-72
2024/01/12 00:28:14;;;;;;;;;;;1.00;99.90;;;;;;5114621;28;20314;-72
2024/01/12 00:30:40;;;;;;;;;;;1.10;99.90;;;;;;5116254;28;19914;-72
2024/01/12 00:33:05;;;;;;;;;;;1.10;99.90;;;;;;5115993;28;19910;-72
2024/01/12 00:35:31;;;;;;;;;;;1.10;99.90;;;;;;5116724;28;19903;-72
2024/01/12 00:37:57;;;;;;;;;;;1.10;99.90;;;;;;5115805;28;19918;-72
2024/01/12 00:40:23;;;;;;;;;;;1.10;99.90;;;;;;5116178;28;19904;-72
2024/01/12 00:42:50;;;;;;;;;;;1.10;99.90;;;;;;5115951;28;19910;-72
2024/01/12 00:45:16;;;;;;;;;;;1.00;99.90;;;;;;5116266;28;19919;-72
2024/01/12 00:47:42;;;;;;;;;;;1.00;99.90;;;;;;5112909;28;19907;-72
2024/01/12 00:50:08;;;;;;;;;;;1.00;99.90;;;;;;5116189;28;19904;-72
2024/01/12 00:52:33;;;;;;;;;;;1.10;99.90;;;;;;5115423;28;20328;-72
2024/01/12 00:54:59;;;;;;;;;;;1.10;99.90;;;;;;5114817;28;19988;-72
2024/01/12 00:57:25;;;;;;;;;;;1.10;99.90;;;;;;5114054;28;20783;-72
2024/01/12 00:59:50;;;;;;;;;;;1.00;99.90;;;;;;5119780;28;20376;-73
2024/01/12 01:02:16;;;;;;;;;;;1.00;99.90;;;;;;5118045;28;19994;-73
2024/01/12 01:04:41;;;;;;;;;;;1.10;99.90;;;;;;5120013;28;19952;-73
2024/01/12 01:07:07;;;;;;;;;;;1.10;99.90;;;;;;5119612;28;19907;-73
2024/01/12 01:09:32;;;;;;;;;;;1.10;99.90;;;;;;5119736;28;19911;-73
2024/01/12 01:11:58;;;;;;;;;;;1.10;99.90;;;;;;5117944;28;19903;-72
2024/01/12 01:14:24;;;;;;;;;;;1.00;99.90;;;;;;5119435;28;20252;-72
2024/01/12 01:16:51;;;;;;;;;;;1.00;99.90;;;;;;5117846;28;19994;-72
2024/01/12 01:19:17;;;;;;;;;;;1.00;99.90;;;;;;5119445;28;19907;-73
2024/01/12 01:21:43;;;;;;;;;;;0.90;99.90;;;;;;5119553;28;20270;-72
2024/01/12 01:24:08;;;;;;;;;;;0.80;99.90;;;;;;5119369;27;19982;-72
2024/01/12 01:26:34;;;;;;;;;;;0.80;99.90;;;;;;5117493;28;19911;-72
2024/01/12 01:28:59;;;;;;;;;;;0.80;99.90;;;;;;5119341;28;19903;-73
2024/01/12 01:31:25;;;;;;;;;;;0.80;99.90;;;;;;5119059;28;19910;-73
2024/01/12 01:33:50;;;;;;;;;;;0.70;99.90;;;;;;5118061;28;19911;-73
2024/01/12 01:36:16;;;;;;;;;;;0.70;99.90;;;;;;5119110;28;19908;-72
2024/01/12 01:38:42;;;;;;;;;;;0.60;99.90;;;;;;5119118;28;20000;-72
2024/01/12 01:41:07;;;;;;;;;;;0.60;99.90;;;;;;5118321;28;19938;-72
2024/01/12 01:43:33;;;;;;;;;;;0.60;99.90;;;;;;5106285;28;19904;-72
2024/01/12 01:45:59;;;;;;;;;;;0.50;99.90;;;;;;5116242;28;19990;-73
2024/01/12 01:48:25;;;;;;;;;;;0.40;99.90;;;;;;5119150;28;19908;-73
2024/01/12 01:50:51;;;;;;;;;;;0.40;99.90;;;;;;5118824;28;19911;-72
2024/01/12 01:53:17;;;;;;;;;;;0.40;99.90;;;;;;5118810;28;20545;-73
2024/01/12 01:55:43;;;;;;;;;;;0.40;99.90;;;;;;5118863;28;20387;-72
2024/01/12 01:58:08;;;;;;;;;;;0.40;99.90;;;;;;5118609;28;19910;-72
2024/01/12 02:00:35;;;;;;;;;;;0.30;99.90;;;;;;5118680;28;19972;-72
2024/01/12 02:03:01;;;;;;;;;;;0.40;99.90;;;;;;5118831;28;19904;-73
2024/01/12 02:05:28;;;;;;;;;;;0.40;99.90;;;;;;5117182;28;19904;-72
2024/01/12 02:07:53;;;;;;;;;;;0.30;99.90;;;;;;5118854;28;19952;-73
2024/01/12 02:10:19;;;;;;;;;;;0.30;99.90;;;;;;5117969;28;19912;-73
2024/01/12 02:12:45;;;;;;;;;;;0.30;99.90;;;;;;5117184;28;19957;-72
2024/01/12 02:15:10;;;;;;;;;;;0.20;99.90;;;;;;5118576;28;19904;-73
2024/01/12 02:17:36;;;;;;;;;;;0.20;99.90;;;;;;5117178;28;19914;-72
2024/01/12 02:20:02;;;;;;;;;;;0.20;99.90;;;;;;5118234;28;19903;-72
2024/01/12 02:22:28;;;;;;;;;;;0.20;99.90;;;;;;5118438;28;19908;-72
2024/01/12 02:24:54;;;;;;;;;;;0.20;99.90;;;;;;5117033;28;20006;-72
2024/01/12 02:27:20;;;;;;;;;;;0.20;99.90;;;;;;5118118;28;19950;-72
2024/01/12 02:29:46;;;;;;;;;;;0.20;99.90;;;;;;5116661;28;19903;-72
2024/01/12 02:32:11;;;;;;;;;;;0.20;99.90;;;;;;5117567;28;19964;-72
2024/01/12 02:34:37;;;;;;;;;;;0.10;99.90;;;;;;5118034;28;19946;-72
2024/01/12 02:37:02;;;;;;;;;;;0.10;99.90;;;;;;5117104;28;19903;-72
2024/01/12 02:39:28;;;;;;;;;;;0.00;99.90;;;;;;5118185;27;19915;-72
2024/01/12 02:41:57;;;;;;;;;;;0.00;99.90;;;;;;5118259;28;19908;-72
2024/01/12 02:44:23;;;;;;;;;;;0.00;99.90;;;;;;5116615;28;20006;-72
2024/01/12 02:46:49;;;;;;;;;;;0.00;99.90;;;;;;5116422;28;19955;-72
2024/01/12 02:49:14;;;;;;;;;;;0.00;99.90;;;;;;5117843;28;19903;-72
2024/01/12 02:51:40;;;;;;;;;;;0.00;99.90;;;;;;5116656;28;19987;-72
2024/01/12 02:54:05;;;;;;;;;;;0.00;99.90;;;;;;5117831;28;19976;-72
2024/01/12 02:56:31;;;;;;;;;;;0.10;99.90;;;;;;5117527;28;19922;-72
2024/01/12 02:58:56;;;;;;;;;;;0.00;99.90;;;;;;5117709;28;19911;-72
2024/01/12 03:01:22;;;;;;;;;;;0.00;99.90;;;;;;5117731;28;19915;-72
2024/01/12 03:03:47;;;;;;;;;;;-0.10;99.90;;;;;;5117218;28;19903;-72
2024/01/12 03:06:13;;;;;;;;;;;-0.10;99.90;;;;;;5106439;28;20003;-71
2024/01/12 03:08:39;;;;;;;;;;;-0.10;99.90;;;;;;5113825;28;20296;-71
2024/01/12 03:11:05;;;;;;;;;;;-0.10;99.90;;;;;;5117350;28;20440;-71
2024/01/12 03:13:33;;;;;;;;;;;-0.10;99.90;;;;;;5116114;28;20279;-72
2024/01/12 03:15:58;;;;;;;;;;;-0.10;99.90;;;;;;5116075;28;19910;-72
2024/01/12 03:18:24;;;;;;;;;;;-0.10;99.90;;;;;;5117342;28;20516;-72
2024/01/12 03:20:50;;;;;;;;;;;-0.10;99.90;;;;;;5115115;28;19930;-72
2024/01/12 03:23:15;;;;;;;;;;;-0.10;99.90;;;;;;5117175;28;20391;-72
2024/01/12 03:25:41;;;;;;;;;;;-0.10;99.90;;;;;;5115952;28;20355;-71
2024/01/12 03:28:08;;;;;;;;;;;-0.10;99.90;;;;;;5114935;28;20372;-72
2024/01/12 03:30:34;;;;;;;;;;;-0.20;99.90;;;;;;5116916;28;19911;-72
2024/01/12 03:32:59;;;;;;;;;;;-0.20;99.90;;;;;;5104070;28;19907;-72
2024/01/12 03:35:25;;;;;;;;;;;-0.20;99.90;;;;;;5116999;28;19915;-71
2024/01/12 03:37:51;;;;;;;;;;;-0.30;99.90;;;;;;5116842;28;19904;-71
2024/01/12 03:40:16;;;;;;;;;;;-0.40;99.90;;;;;;5116900;28;19904;-71
2024/01/12 03:42:42;;;;;;;;;;;-0.40;99.90;;;;;;5115084;28;19907;-71
2024/01/12 03:45:08;;;;;;;;;;;-0.40;99.90;;;;;;5116863;28;19903;-71
2024/01/12 03:47:33;;;;;;;;;;;-0.40;99.90;;;;;;5114586;28;19907;-72
2024/01/12 03:49:59;;;;;;;;;;;-0.40;99.90;;;;;;5115426;28;19964;-72
2024/01/12 03:52:24;;;;;;;;;;;-0.40;99.90;;;;;;5115026;28;19968;-72
2024/01/12 03:54:50;;;;;;;;;;;-0.50;99.90;;;;;;5115250;28;19964;-71
2024/01/12 03:57:15;;;;;;;;;;;-0.50;99.90;;;;;;5110059;28;20001;-71
2024/01/12 03:59:41;;;;;;;;;;;-0.50;99.90;;;;;;5106463;28;19915;-72
2024/01/12 04:02:06;;;;;;;;;;;-0.50;99.90;;;;;;5111263;28;19904;-71
2024/01/12 04:04:32;;;;;;;;;;;-0.50;99.90;;;;;;5103248;28;19911;-71
2024/01/12 04:06:57;;;;;;;;;;;-0.60;99.90;;;;;;5110891;28;19952;-71
2024/01/12 04:09:23;;;;;;;;;;;-0.60;99.90;;;;;;5115664;28;20409;-71
2024/01/12 04:11:48;;;;;;;;;;;-0.60;99.90;;;;;;5115515;28;19904;-71
2024/01/12 04:14:14;;;;;;;;;;;-0.60;99.90;;;;;;5116061;28;19904;-71
2024/01/12 04:16:40;;;;;;;;;;;-0.60;99.90;;;;;;5111260;28;20005;-71
2024/01/12 04:19:05;;;;;;;;;;;-0.70;99.90;;;;;;5115197;28;19934;-71
2024/01/12 04:21:31;;;;;;;;;;;-0.70;99.90;;;;;;5114717;28;19998;-71
2024/01/12 04:23:57;;;;;;;;;;;-0.70;99.90;;;;;;5114545;28;19903;-71
2024/01/12 04:26:22;;;;;;;;;;;-0.70;99.90;;;;;;5115890;28;19904;-71
2024/01/12 04:28:48;;;;;;;;;;;-0.70;99.90;;;;;;5116058;28;19911;-71
2024/01/12 04:31:13;;;;;;;;;;;-0.80;99.90;;;;;;5114154;28;19903;-71
2024/01/12 04:33:40;;;;;;;;;;;-0.80;99.90;;;;;;5115449;28;19927;-71
2024/01/12 04:36:06;;;;;;;;;;;-0.80;99.90;;;;;;5119126;28;20316;-71
2024/01/12 04:38:32;;;;;;;;;;;-0.80;99.90;;;;;;5120191;28;20383;-71
2024/01/12 04:40:57;;;;;;;;;;;-0.80;99.90;;;;;;5119984;28;19903;-71
2024/01/12 04:43:23;;;;;;;;;;;-0.80;99.90;;;;;;5118461;28;19910;-71
2024/01/12 04:45:48;;;;;;;;;;;-0.80;99.90;;;;;;5119912;28;19986;-71
2024/01/12 04:48:14;;;;;;;;;;;-0.80;99.90;;;;;;5118515;28;19907;-71
2024/01/12 04:50:39;;;;;;;;;;;-0.80;99.90;;;;;;5119750;27;19904;-72
2024/01/12 04:53:05;;;;;;;;;;;-0.80;99.90;;;;;;5120100;28;19930;-71
2024/01/12 04:55:31;;;;;;;;;;;-0.80;99.90;;;;;;5117906;28;19904;-72
2024/01/12 04:57:56;;;;;;;;;;;-0.90;99.90;;;;;;5118247;28;19908;-72
2024/01/12 05:00:22;;;;;;;;;;;-0.90;99.90;;;;;;5118477;28;19950;-72
2024/01/12 05:02:47;;;;;;;;;;;-0.90;99.90;;;;;;5119895;28;19973;-71
2024/01/12 05:05:13;;;;;;;;;;;-0.90;99.90;;;;;;5119746;28;20338;-72
2024/01/12 05:07:38;;;;;;;;;;;-0.90;99.90;;;;;;5119762;28;20349;-72
2024/01/12 05:10:04;;;;;;;;;;;-0.90;99.90;;;;;;5119662;28;19904;-72
2024/01/12 05:12:30;;;;;;;;;;;-0.80;99.90;;;;;;5117888;28;19903;-72
2024/01/12 05:14:55;;;;;;;;;;;-0.80;99.90;;;;;;5117753;28;20268;-72
2024/01/12 05:17:22;;;;;;;;;;;-0.80;99.90;;;;;;5119743;28;20302;-72
2024/01/12 05:19:48;;;;;;;;;;;-0.80;99.90;;;;;;5117822;28;19908;-72
2024/01/12 05:22:13;;;;;;;;;;;-0.80;99.90;;;;;;5119728;28;20005;-72
2024/01/12 05:24:39;;;;;;;;;;;-0.90;99.90;;;;;;5117933;28;19904;-72
2024/01/12 05:27:04;;;;;;;;;;;-0.90;99.90;;;;;;5118999;28;19907;-72
2024/01/12 05:29:30;;;;;;;;;;;-0.90;99.90;;;;;;5117832;28;19903;-72
2024/01/12 05:31:55;;;;;;;;;;;-0.90;99.90;;;;;;5118015;28;19908;-72
2024/01/12 05:34:21;;;;;;;;;;;-0.90;99.90;;;;;;5118999;28;19911;-72
2024/01/12 05:36:46;;;;;;;;;;;-0.90;99.90;;;;;;5119001;28;19904;-73
2024/01/12 05:39:12;;;;;;;;;;;-0.90;99.90;;;;;;5117747;28;19904;-72
2024/01/12 05:41:38;;;;;;;;;;;-0.90;99.90;;;;;;5118819;28;20435;-72
2024/01/12 05:44:03;;;;;;;;;;;-0.80;99.90;;;;;;5116660;28;19908;-72
2024/01/12 05:46:29;;;;;;;;;;;-0.80;99.90;;;;;;5116151;28;20490;-72
2024/01/12 05:48:54;;;;;;;;;;;-0.70;99.90;;;;;;5117571;28;19964;-72
2024/01/12 05:51:20;;;;;;;;;;;-0.70;99.90;;;;;;5116820;28;19972;-72
2024/01/12 05:53:46;;;;;;;;;;;-0.70;99.90;;;;;;5101735;28;19953;-72
2024/01/12 05:56:11;;;;;;;;;;;-0.60;99.90;;;;;;5118176;28;20391;-72
2024/01/12 05:58:37;;;;;;;;;;;-0.60;99.90;;;;;;5118116;28;19904;-73
2024/01/12 06:01:03;;;;;;;;;;;-0.60;99.90;;;;;;5118311;28;19908;-72
2024/01/12 06:03:28;;;;;;;;;;;-0.60;99.90;;;;;;5118300;28;19914;-73
2024/01/12 06:05:57;;;;;;;;;;;-0.50;99.90;;;;;;5118790;28;19955;-72
2024/01/12 06:08:23;;;;;;;;;;;-0.50;99.90;;;;;;5116915;28;19972;-72
2024/01/12 06:10:49;;;;;;;;;;;-0.40;99.90;;;;;;5116942;28;19914;-72
2024/01/12 06:13:14;;;;;;;;;;;-0.40;99.90;;;;;;5116733;28;19942;-72
2024/01/12 06:15:40;;;;;;;;;;;-0.40;99.90;;;;;;5116758;28;19903;-72
2024/01/12 06:18:06;;;;;;;;;;;-0.40;99.90;;;;;;5116763;28;19911;-73
2024/01/12 06:20:31;;;;;;;;;;;-0.40;99.90;;;;;;5118180;28;20368;-73
2024/01/12 06:22:57;;;;;;;;;;;-0.40;99.90;;;;;;5117894;28;19934;-73
2024/01/12 06:25:23;;;;;;;;;;;-0.30;99.90;;;;;;5117924;28;19953;-72
2024/01/12 06:27:49;;;;;;;;;;;-0.20;99.90;;;;;;5117783;28;19915;-73
2024/01/12 06:30:15;;;;;;;;;;;-0.10;99.90;;;;;;5118112;28;19957;-72
2024/01/12 06:32:40;;;;;;;;;;;0.00;99.90;;;;;;5116736;28;19904;-73
2024/01/12 06:35:13;;;;;;;;;;;0.10;99.90;;;;;;5116451;28;19911;-73
2024/01/12 06:37:38;;;;;;;;;;;0.20;99.90;;;;;;5117463;28;20002;-73
2024/01/12 06:40:04;;;;;;;;;;;0.30;99.90;;;;;;5116612;28;19962;-73
2024/01/12 06:42:30;;;;;;;;;;;0.30;99.90;;;;;;5117453;27;19952;-72
2024/01/12 06:44:56;;;;;;;;;;;0.50;99.90;;;;;;5117898;28;19911;-73
2024/01/12 06:47:21;;;;;;;;;;;0.50;99.90;;;;;;5114518;28;19960;-73
2024/01/12 06:49:47;;;;;;;;;;;0.50;99.90;;;;;;5117633;28;19911;-73
2024/01/12 06:52:13;;;;;;;;;;;0.50;99.90;;;;;;5116003;28;19903;-73
2024/01/12 06:54:44;;;;;;;;;;;0.40;99.90;;;;;;5117308;28;19949;-72
2024/01/12 06:57:10;;;;;;;;;;;0.40;99.90;;;;;;5116675;28;19926;-72
2024/01/12 06:59:36;;;;;;;;;;;0.50;99.90;;;;;;5116375;28;20364;-73
2024/01/12 07:02:01;;;;;;;;;;;0.50;99.90;;;;;;5117049;28;19910;-72
2024/01/12 07:04:27;;;;;;;;;;;0.50;99.90;;;;;;5105117;28;19998;-72
2024/01/12 07:06:52;;;;;;;;;;;0.60;99.90;;;;;;5117289;27;19908;-72
2024/01/12 07:09:21;;;;;;;;;;;0.60;99.90;;;;;;5117496;28;19972;-73
2024/01/12 07:11:47;;;;;;;;;;;0.60;99.90;;;;;;5115665;28;19939;-72
2024/01/12 07:14:15;;;;;;;;;;;0.70;99.90;;;;;;5117211;28;19952;-73
2024/01/12 07:16:41;;;;;;;;;;;0.70;99.90;;;;;;5110662;28;20472;-72
2024/01/12 07:19:07;;;;;;;;;;;0.80;99.90;;;;;;5117201;28;20350;-72
2024/01/12 07:21:32;;;;;;;;;;;0.80;99.90;;;;;;5115603;28;20279;-72
2024/01/12 07:23:58;;;;;;;;;;;0.80;99.90;;;;;;5115401;28;20178;-72
2024/01/12 07:26:24;;;;;;;;;;;0.80;99.90;;;;;;5116821;28;19907;-72
2024/01/12 07:28:49;;;;;;;;;;;0.90;99.90;;;;;;5115268;28;20664;-72
2024/01/12 07:31:15;;;;;;;;;;;0.80;99.90;;;;;;5115622;28;19907;-72
2024/01/12 07:33:40;;;;;;;;;;;0.90;99.90;;;;;;5112371;28;19908;-72
2024/01/12 07:36:07;;;;;;;;;;;0.90;99.90;;;;;;5116910;28;19919;-72
2024/01/12 07:38:33;;;;;;;;;;;1.00;99.90;;;;;;5116452;28;19903;-71
2024/01/12 07:40:58;;;;;;;;;;;1.00;99.90;;;;;;5116567;28;19904;-72
2024/01/12 07:43:27;;;;;;;;;;;1.00;99.90;;;;;;5116389;28;19911;-73
2024/01/12 07:45:53;;;;;;;;;;;1.10;99.90;;;;;;5113997;28;19908;-73
2024/01/12 07:48:18;;;;;;;;;;;1.10;99.90;;;;;;5109514;28;19919;-72
2024/01/12 07:50:44;;;;;;;;;;;1.10;99.90;;;;;;5106198;28;20380;-73
2024/01/12 07:53:09;;;;;;;;;;;1.20;99.90;;;;;;5110952;28;19997;-74
2024/01/12 07:55:35;;;;;;;;;;;1.20;99.90;;;;;;5110145;28;20318;-74
2024/01/12 07:58:00;;;;;;;;;;;1.20;99.90;;;;;;5106260;28;19912;-74
2024/01/12 08:00:26;;;;;;;;;;;1.30;99.90;;;;;;5112106;28;20443;-74
2024/01/12 08:02:54;;;;;;;;;;;1.30;99.90;;;;;;5111775;28;19911;-74
2024/01/12 08:05:20;;;;;;;;;;;1.30;99.90;;;;;;5108550;28;19911;-74
2024/01/12 08:07:46;;;;;;;;;;;1.30;99.90;;;;;;5101210;28;19976;-74
2024/01/12 08:10:11;;;;;;;;;;;1.40;99.90;;;;;;5112060;28;19943;-74
2024/01/12 08:12:37;;;;;;;;;;;1.40;99.90;;;;;;5109968;28;19912;-74
2024/01/12 08:15:02;;;;;;;;;;;1.40;99.90;;;;;;5111964;28;19911;-74
2024/01/12 08:17:28;;;;;;;;;;;1.50;99.90;;;;;;5111334;28;19907;-74
2024/01/12 08:19:53;;;;;;;;;;;1.40;99.90;;;;;;5094843;28;19979;-74
2024/01/12 08:22:19;;;;;;;;;;;1.40;99.90;;;;;;5110470;28;19946;-74
2024/01/12 08:24:44;;;;;;;;;;;1.40;99.90;;;;;;5110031;28;20363;-74
2024/01/12 08:27:10;;;;;;;;;;;1.40;99.90;;;;;;5111167;28;20862;-74
2024/01/12 08:29:36;;;;;;;;;;;1.40;99.90;;;;;;5111745;28;19908;-74
2024/01/12 08:32:01;;;;;;;;;;;1.40;99.90;;;;;;5107367;28;19914;-74
2024/01/12 08:34:27;;;;;;;;;;;1.40;99.90;;;;;;5111772;28;20383;-74
2024/01/12 08:36:53;;;;;;;;;;;1.40;99.90;;;;;;5111104;28;19907;-74
2024/01/12 08:39:18;;;;;;;;;;;1.50;99.90;;;;;;5110318;28;20302;-74
2024/01/12 08:41:44;;;;;;;;;;;1.50;99.90;;;;;;5109675;28;19939;-74
2024/01/12 08:44:11;;;;;;;;;;;1.50;99.90;;;;;;5110313;28;19904;-74
2024/01/12 08:46:37;;;;;;;;;;;1.60;99.90;;;;;;5105230;28;20377;-74
2024/01/12 08:49:02;;;;;;;;;;;1.60;99.90;;;;;;5095760;28;19912;-74
2024/01/12 08:51:28;;;;;;;;;;;1.60;99.90;;;;;;5103849;28;19912;-74
2024/01/12 08:53:53;;;;;;;;;;;1.70;99.90;;;;;;5100191;28;19912;-73
2024/01/12 08:56:19;;;;;;;;;;;1.70;99.90;;;;;;5109669;28;19920;-74
2024/01/12 08:58:44;;;;;;;;;;;1.70;99.90;;;;;;5097173;28;19913;-74
2024/01/12 09:01:10;;;;;;;;;;;1.70;99.90;;;;;;5104920;28;20359;-74
2024/01/12 09:03:35;;;;;;;;;;;1.80;99.90;;;;;;5110387;28;19904;-74
2024/01/12 09:06:01;;;;;;;;;;;1.80;99.90;;;;;;5109489;28;19903;-74
2024/01/12 09:08:26;;;;;;;;;;;1.90;99.90;;;;;;5113507;28;19915;-74
2024/01/12 09:10:52;;;;;;;;;;;1.90;99.90;;;;;;5110603;28;20276;-74
2024/01/12 09:13:18;;;;;;;;;;;2.00;99.90;;;;;;5114134;28;20295;-74
2024/01/12 09:15:43;;;;;;;;;;;2.10;99.90;;;;;;5109395;28;19914;-74
2024/01/12 09:18:09;;;;;;;;;;;2.20;99.90;;;;;;5109635;28;20385;-74
2024/01/12 09:20:34;;;;;;;;;;;2.30;99.90;;;;;;5112836;28;19908;-74
2024/01/12 09:23:00;;;;;;;;;;;2.40;99.90;;;;;;5114256;28;19908;-74
2024/01/12 09:25:26;;;;;;;;;;;2.50;99.90;;;;;;5114278;28;19958;-73
2024/01/12 09:27:52;;;;;;;;;;;2.40;99.90;;;;;;5112387;28;19907;-73
2024/01/12 09:30:18;;;;;;;;;;;2.40;99.90;;;;;;5110642;28;19916;-73
2024/01/12 09:32:44;;;;;;;;;;;2.50;99.90;;;;;;5117301;28;19908;-74
2024/01/12 09:35:09;;;;;;;;;;;2.50;99.90;;;;;;5108286;28;19914;-73
2024/01/12 09:37:36;;;;;;;;;;;2.60;99.90;;;;;;5110354;28;19918;-73
2024/01/12 09:40:02;;;;;;;;;;;2.60;99.90;;;;;;5110284;28;19911;-74
2024/01/12 09:42:30;;;;;;;;;;;2.70;99.90;;;;;;5111655;28;19903;-73
2024/01/12 09:44:56;;;;;;;;;;;2.70;99.90;;;;;;5113908;28;19953;-73
2024/01/12 09:47:21;;;;;;;;;;;2.70;99.90;;;;;;5116549;28;19911;-73
2024/01/12 09:49:48;;;;;;;;;;;2.70;99.90;;;;;;5112339;28;19904;-73
2024/01/12 09:52:14;;;;;;;;;;;2.80;99.90;;;;;;5116064;28;20380;-73
2024/01/12 09:54:39;;;;;;;;;;;2.80;99.90;;;;;;5116748;28;20294;-74
2024/01/12 09:57:07;;;;;;;;;;;2.90;99.90;;;;;;5115074;28;19977;-73
2024/01/12 09:59:36;;;;;;;;;;;2.90;99.90;;;;;;5116421;28;19911;-74
2024/01/12 10:02:02;;;;;;;;;;;3.00;99.90;;;;;;5117512;28;19960;-73
2024/01/12 10:04:27;;;;;;;;;;;3.20;99.90;;;;;;5116371;28;19903;-73
2024/01/12 10:06:54;;;;;;;;;;;3.30;99.90;;;;;;5117054;28;20394;-74
2024/01/12 10:09:24;;;;;;;;;;;3.30;99.90;;;;;;5112518;28;19957;-74
2024/01/12 10:11:52;;;;;;;;;;;3.40;99.90;;;;;;5115567;28;20322;-74
2024/01/12 10:14:22;;;;;;;;;;;3.40;99.90;;;;;;5116268;28;19903;-74
2024/01/12 10:16:54;;;;;;;;;;;3.50;99.90;;;;;;5116990;28;20300;-74
2024/01/12 10:19:19;;;;;;;;;;;3.50;99.90;;;;;;5116153;28;19948;-74
2024/01/12 10:21:46;;;;;;;;;;;3.50;99.90;;;;;;5109682;28;19908;-74
2024/01/12 10:24:16;;;;;;;;;;;3.50;99.90;;;;;;5114377;28;19947;-74
2024/01/12 10:26:42;;;;;;;;;;;3.50;99.90;;;;;;5108311;28;20269;-74
2024/01/12 10:29:07;;;;;;;;;;;3.50;99.90;;;;;;5112290;28;19987;-74
2024/01/12 10:31:37;;;;;;;;;;;3.60;99.90;;;;;;5115033;28;19912;-74
2024/01/12 10:34:04;;;;;;;;;;;3.80;99.90;;;;;;5116813;28;19903;-74
2024/01/12 10:36:31;;;;;;;;;;;3.80;99.90;;;;;;5113155;28;19908;-74
2024/01/12 10:38:59;;;;;;;;;;;3.90;99.90;;;;;;5114795;28;20013;-74
2024/01/12 10:41:25;;;;;;;;;;;4.00;99.90;;;;;;5111331;28;19908;-74
2024/01/12 10:43:51;;;;;;;;;;;4.00;99.90;;;;;;5113333;28;19908;-74
2024/01/12 10:46:23;;;;;;;;;;;4.00;99.90;;;;;;5112306;28;19908;-74
2024/01/12 10:48:55;;;;;;;;;;;3.80;99.90;;;;;;5111863;28;20449;-73
2024/01/12 10:51:22;;;;;;;;;;;3.80;99.90;;;;;;5109562;28;19907;-73
2024/01/12 10:53:55;;;;;;;;;;;3.80;99.90;;;;;;5112342;28;19947;-74
2024/01/12 10:56:21;;;;;;;;;;;3.60;99.90;;;;;;5109147;28;19920;-73
2024/01/12 10:58:48;;;;;;;;;;;3.70;99.90;;;;;;5114073;28;19949;-73
2024/01/12 11:01:13;;;;;;;;;;;3.60;99.90;;;;;;5111572;28;19907;-74
2024/01/12 11:03:39;;;;;;;;;;;3.80;99.90;;;;;;5110656;28;20402;-73
2024/01/12 11:06:06;;;;;;;;;;;3.90;99.90;;;;;;5112528;28;20422;-73
2024/01/12 11:08:32;;;;;;;;;;;4.00;99.90;;;;;;5112678;28;19911;-73
2024/01/12 11:10:58;;;;;;;;;;;4.00;99.90;;;;;;5112308;28;19911;-73
2024/01/12 11:13:23;;;;;;;;;;;4.00;99.90;;;;;;5110735;28;19908;-74
2024/01/12 11:15:51;;;;;;;;;;;3.90;99.90;;;;;;5114573;28;19994;-73
2024/01/12 11:18:17;;;;;;;;;;;4.00;99.90;;;;;;5107706;28;19912;-72
2024/01/12 11:20:44;;;;;;;;;;;4.00;99.90;;;;;;5107424;28;20069;-72
2024/01/12 11:23:10;;;;;;;;;;;4.00;99.90;;;;;;5107465;28;19912;-72
2024/01/12 11:25:35;;;;;;;;;;;4.00;99.90;;;;;;5110690;28;19908;-73
2024/01/12 11:28:01;;;;;;;;;;;4.00;99.90;;;;;;5107383;28;20006;-73
2024/01/12 11:30:28;;;;;;;;;;;4.10;99.90;;;;;;5110002;28;19908;-72
2024/01/12 11:33:06;;;;;;;;;;;4.10;99.90;;;;;;5107748;27;20468;-73
2024/01/12 11:35:32;;;;;;;;;;;4.20;99.90;;;;;;5108088;28;19955;-73
2024/01/12 11:38:08;;;;;;;;;;;4.40;99.90;;;;;;5105862;28;20032;-72
2024/01/12 11:40:35;;;;;;;;;;;4.50;99.90;;;;;;5109759;28;19967;-73
2024/01/12 11:43:00;;;;;;;;;;;4.50;99.90;;;;;;5105244;28;19914;-74
2024/01/12 11:45:27;;;;;;;;;;;4.50;99.90;;;;;;5108211;28;20030;-74
2024/01/12 11:47:53;;;;;;;;;;;4.50;99.90;;;;;;5106328;28;19915;-74
2024/01/12 11:50:19;;;;;;;;;;;4.40;99.90;;;;;;5104500;28;20287;-74
2024/01/12 11:52:55;;;;;;;;;;;4.30;99.90;;;;;;5110827;28;19915;-74
2024/01/12 11:55:21;;;;;;;;;;;4.30;99.90;;;;;;5107475;28;19907;-74
2024/01/12 11:57:46;;;;;;;;;;;4.20;99.90;;;;;;5109397;28;19919;-74
2024/01/12 12:00:12;;;;;;;;;;;4.20;99.90;;;;;;5110783;28;19960;-74
2024/01/12 12:02:38;;;;;;;;;;;4.10;99.90;;;;;;5110561;28;20047;-74
2024/01/12 12:05:07;;;;;;;;;;;4.30;99.90;;;;;;5109685;28;19931;-74
2024/01/12 12:07:36;;;;;;;;;;;4.40;99.90;;;;;;5107138;28;19926;-74
2024/01/12 12:10:02;;;;;;;;;;;4.50;99.90;;;;;;5110918;28;19907;-74
2024/01/12 12:12:27;;;;;;;;;;;4.40;99.90;;;;;;5110613;28;19907;-74
2024/01/12 12:14:56;;;;;;;;;;;4.40;99.90;;;;;;5110983;28;19915;-74
2024/01/12 12:17:24;;;;;;;;;;;4.50;99.90;;;;;;5110228;28;19904;-74
2024/01/12 12:19:49;;;;;;;;;;;4.60;99.90;;;;;;5107882;28;19953;-74
2024/01/12 12:22:15;;;;;;;;;;;4.60;99.90;;;;;;5102174;28;19957;-74
2024/01/12 12:24:40;;;;;;;;;;;4.80;99.90;;;;;;5108552;28;19914;-74
2024/01/12 12:27:06;;;;;;;;;;;4.70;99.90;;;;;;5107764;28;19915;-73
2024/01/12 12:29:33;;;;;;;;;;;4.60;99.90;;;;;;5109903;28;19908;-74
2024/01/12 12:31:59;;;;;;;;;;;4.60;99.90;;;;;;5089140;28;19912;-74
2024/01/12 12:34:25;;;;;;;;;;;4.50;99.90;;;;;;5110396;28;19915;-75
2024/01/12 12:36:50;;;;;;;;;;;4.40;99.90;;;;;;5108987;28;19912;-74
2024/01/12 12:39:16;;;;;;;;;;;4.40;99.90;;;;;;5108529;28;19911;-74
2024/01/12 12:41:41;;;;;;;;;;;4.50;99.90;;;;;;5107756;28;19915;-74
2024/01/12 12:44:07;;;;;;;;;;;4.50;99.90;;;;;;5110231;28;19903;-74
2024/01/12 12:46:33;;;;;;;;;;;4.60;99.90;;;;;;5103805;28;19908;-74
2024/01/12 12:48:58;;;;;;;;;;;4.60;99.90;;;;;;5106470;28;19911;-74
2024/01/12 12:51:24;;;;;;;;;;;4.70;99.90;;;;;;5101658;28;19967;-74
2024/01/12 12:53:50;;;;;;;;;;;4.60;99.90;;;;;;5103073;28;19934;-75
2024/01/12 12:56:15;;;;;;;;;;;4.50;99.90;;;;;;5103648;28;19955;-75
2024/01/12 12:58:41;;;;;;;;;;;4.50;99.90;;;;;;5107830;28;20714;-75
2024/01/12 13:01:07;;;;;;;;;;;4.60;99.90;;;;;;5110286;28;19908;-75
2024/01/12 13:03:32;;;;;;;;;;;4.60;99.90;;;;;;5106354;28;19919;-74
2024/01/12 13:05:58;;;;;;;;;;;4.60;99.90;;;;;;5105460;28;19908;-75
2024/01/12 13:08:23;;;;;;;;;;;4.50;99.90;;;;;;5111219;28;19912;-73
2024/01/12 13:10:52;;;;;;;;;;;4.40;99.90;;;;;;5106015;28;20080;-73
2024/01/12 13:13:17;;;;;;;;;;;4.50;99.90;;;;;;5104285;28;19907;-73
2024/01/12 13:15:43;;;;;;;;;;;4.60;99.90;;;;;;5111121;28;19912;-72
2024/01/12 13:18:09;;;;;;;;;;;4.50;99.90;;;;;;5113382;28;19943;-73
2024/01/12 13:20:34;;;;;;;;;;;4.40;99.90;;;;;;5125555;27;19908;-73
2024/01/12 13:23:00;;;;;;;;;;;4.50;99.90;;;;;;5109223;28;19907;-73
2024/01/12 13:25:25;;;;;;;;;;;4.50;99.90;;;;;;5103202;28;19912;-73
2024/01/12 13:27:51;;;;;;;;;;;4.70;99.90;;;;;;5107850;28;20700;-72
2024/01/12 13:30:17;;;;;;;;;;;4.60;99.90;;;;;;5111579;28;19972;-74
2024/01/12 13:32:43;;;;;;;;;;;4.50;99.90;;;;;;5110050;28;19991;-74
2024/01/12 13:35:09;;;;;;;;;;;4.50;99.90;;;;;;5107094;28;19915;-74
2024/01/12 13:37:34;;;;;;;;;;;4.50;99.90;;;;;;5108147;28;19912;-74
2024/01/12 13:40:00;;;;;;;;;;;4.60;99.90;;;;;;5107672;28;20478;-74
2024/01/12 13:42:26;;;;;;;;;;;4.50;99.90;;;;;;5113064;28;19950;-74
2024/01/12 13:44:51;;;;;;;;;;;4.50;99.90;;;;;;5105423;28;19996;-73
2024/01/12 13:47:16;;;;;;;;;;;4.50;99.90;;;;;;5111142;28;19918;-74
2024/01/12 13:49:42;;;;;;;;;;;4.50;99.90;;;;;;5108978;28;19908;-74
2024/01/12 13:52:08;;;;;;;;;;;4.60;99.90;;;;;;5108826;28;19910;-74
2024/01/12 13:54:34;;;;;;;;;;;4.70;99.90;;;;;;5110877;28;19961;-74
2024/01/12 13:56:59;;;;;;;;;;;4.70;99.90;;;;;;5107367;28;19920;-73
2024/01/12 13:59:25;;;;;;;;;;;4.70;99.90;;;;;;5107181;28;20009;-73
2024/01/12 14:01:50;;;;;;;;;;;4.70;99.90;;;;;;5110343;28;19973;-72
2024/01/12 14:04:17;;;;;;;;;;;4.60;99.90;;;;;;5105055;28;19912;-73
2024/01/12 14:06:43;;;;;;;;;;;4.50;99.90;;;;;;5104877;28;19908;-72
2024/01/12 14:09:10;;;;;;;;;;;4.40;99.90;;;;;;5111291;28;19912;-72
2024/01/12 14:11:36;;;;;;;;;;;4.30;99.90;;;;;;5107282;28;20007;-73
2024/01/12 14:14:02;;;;;;;;;;;4.30;99.90;;;;;;5107502;28;19935;-72
2024/01/12 14:16:29;;;;;;;;;;;4.30;99.90;;;;;;5108436;28;19919;-73
2024/01/12 14:18:54;;;;;;;;;;;4.30;99.90;;;;;;5104960;28;19946;-72